createdAt,value
2022-08-11T00:01:26.290Z,10.48
2022-08-11T00:04:13.701Z,8.07
2022-08-11T00:07:04.211Z,10.95
2022-08-11T00:09:50.091Z,10.60
2022-08-11T00:12:35.683Z,6.68
2022-08-11T00:15:22.921Z,8.77
2022-08-11T00:18:09.313Z,10.80
2022-08-11T00:21:00.173Z,14.65
2022-08-11T00:23:58.263Z,12.73
2022-08-11T00:26:49.465Z,17.95
2022-08-11T00:29:35.321Z,17.27
2022-08-11T00:32:40.905Z,11.73
2022-08-11T00:35:51.013Z,12.75
2022-08-11T00:38:40.796Z,9.48
2022-08-11T00:41:47.759Z,9.50
2022-08-11T00:45:17.276Z,15.85
2022-08-11T00:48:33.339Z,12.85
2022-08-11T00:52:04.386Z,13.43
2022-08-11T00:55:03.497Z,13.02
2022-08-11T00:58:07.489Z,9.95
2022-08-11T01:01:10.667Z,10.90
2022-08-11T01:04:10.815Z,11.13
2022-08-11T01:08:01.745Z,14.43
2022-08-11T01:10:59.260Z,14.38
2022-08-11T01:14:06.284Z,10.95
2022-08-11T01:17:29.480Z,13.40
2022-08-11T01:20:47.915Z,12.43
2022-08-11T01:23:31.030Z,18.55
2022-08-11T01:26:53.987Z,13.85
2022-08-11T01:29:49.467Z,13.85
2022-08-11T01:33:20.152Z,14.95
2022-08-11T01:36:33.303Z,16.60
2022-08-11T01:39:55.525Z,12.50
2022-08-11T01:43:15.321Z,11.23
2022-08-11T01:46:12.801Z,14.65
2022-08-11T01:50:06.743Z,10.20
2022-08-11T01:52:42.285Z,14.48
2022-08-11T01:55:58.987Z,12.05
2022-08-11T01:59:13.497Z,12.23
2022-08-11T02:02:10.909Z,11.50
2022-08-11T02:08:33.640Z,12.82
2022-08-11T02:11:35.730Z,14.80
2022-08-11T02:14:37.111Z,14.85
2022-08-11T02:17:54.895Z,13.25
2022-08-11T02:21:14.368Z,14.63
2022-08-11T02:24:10.767Z,13.57
2022-08-11T02:27:16.285Z,8.88
2022-08-11T02:30:08.448Z,8.05
2022-08-11T02:33:18.259Z,9.15
2022-08-11T02:36:08.494Z,9.90
2022-08-11T02:39:09.909Z,12.20
2022-08-11T02:42:32.397Z,12.02
2022-08-11T02:45:50.092Z,9.38
2022-08-11T02:49:14.943Z,12.85
2022-08-11T02:52:09.689Z,12.43
2022-08-11T02:55:46.990Z,11.00
2022-08-11T02:59:14.089Z,11.75
2022-08-11T03:02:14.504Z,14.93
2022-08-11T03:05:12.242Z,11.50
2022-08-11T03:08:24.162Z,12.35
2022-08-11T03:11:36.217Z,9.95
2022-08-11T03:14:51.319Z,10.48
2022-08-11T03:18:04.906Z,12.05
2022-08-11T03:21:16.142Z,17.10
2022-08-11T03:24:25.723Z,14.27
2022-08-11T03:27:48.616Z,14.27
2022-08-11T03:30:54.462Z,13.13
2022-08-11T03:34:06.723Z,12.82
2022-08-11T03:37:17.083Z,13.18
2022-08-11T03:40:50.051Z,11.98
2022-08-11T03:44:07.780Z,10.38
2022-08-11T03:47:07.959Z,14.25
2022-08-11T03:50:07.965Z,14.57
2022-08-11T03:53:19.230Z,12.32
2022-08-11T03:56:29.714Z,12.05
2022-08-11T03:59:34.791Z,14.40
2022-08-11T04:02:43.834Z,12.85
2022-08-11T04:05:42.363Z,12.90
2022-08-11T04:09:11.338Z,12.27
2022-08-11T04:12:14.661Z,15.40
2022-08-11T04:16:11.714Z,12.98
2022-08-11T04:19:19.347Z,15.23
2022-08-11T04:22:46.506Z,15.10
2022-08-11T04:26:11.665Z,15.05
2022-08-11T04:29:36.311Z,17.60
2022-08-11T04:33:35.396Z,13.98
2022-08-11T04:37:17.395Z,13.48
2022-08-11T04:40:27.767Z,17.08
2022-08-11T04:43:37.297Z,15.85
2022-08-11T04:47:07.292Z,14.98
2022-08-11T04:51:08.643Z,16.63
2022-08-11T04:54:28.433Z,17.10
2022-08-11T04:58:05.728Z,15.32
2022-08-11T05:01:36.973Z,17.42
2022-08-11T05:05:18.385Z,18.58
2022-08-11T05:08:43.897Z,15.30
2022-08-11T05:11:50.692Z,19.33
2022-08-11T05:15:12.286Z,16.17
2022-08-11T05:18:37.992Z,16.60
2022-08-11T05:21:45.546Z,16.88
2022-08-11T05:25:05.845Z,17.88
2022-08-11T05:28:30.856Z,24.02
2022-08-11T05:31:38.653Z,20.45
2022-08-11T05:34:54.103Z,18.00
2022-08-11T05:38:05.619Z,17.25
2022-08-11T05:41:12.784Z,20.52
2022-08-11T05:44:22.115Z,27.75
2022-08-11T05:47:27.566Z,24.30
2022-08-11T05:50:34.153Z,24.88
2022-08-11T05:53:45.794Z,26.65
2022-08-11T05:56:34.512Z,31.65
2022-08-11T05:59:21.311Z,30.83
2022-08-11T06:02:08.716Z,45.00
2022-08-11T06:04:59.951Z,46.35
2022-08-11T06:07:48.964Z,42.67
2022-08-11T06:10:43.089Z,42.05
2022-08-11T06:13:29.125Z,41.88
2022-08-11T06:16:23.289Z,43.72
2022-08-11T06:19:10.468Z,40.58
2022-08-11T06:21:57.055Z,47.10
2022-08-11T06:24:53.374Z,42.30
2022-08-11T06:27:41.913Z,40.38
2022-08-11T06:30:45.227Z,35.88
2022-08-11T06:33:57.899Z,45.45
2022-08-11T06:36:59.843Z,48.83
2022-08-11T06:39:49.209Z,52.40
2022-08-11T06:43:02.336Z,48.10
2022-08-11T06:46:03.362Z,47.97
2022-08-11T06:48:49.997Z,74.60
2022-08-11T06:51:38.464Z,55.33
2022-08-11T06:54:31.141Z,51.70
2022-08-11T06:57:38.350Z,41.15
2022-08-11T07:00:28.755Z,41.00
2022-08-11T07:03:17.857Z,39.17
2022-08-11T07:06:51.257Z,38.03
2022-08-11T07:10:38.770Z,33.97
2022-08-11T07:13:45.891Z,30.80
2022-08-11T07:16:35.363Z,28.75
2022-08-11T07:19:44.609Z,29.25
2022-08-11T07:22:51.465Z,28.55
2022-08-11T07:25:58.720Z,27.95
2022-08-11T07:28:58.021Z,28.42
2022-08-11T07:31:51.151Z,27.15
2022-08-11T07:34:40.572Z,33.35
2022-08-11T07:37:29.472Z,32.28
2022-08-11T07:40:25.751Z,31.90
2022-08-11T07:43:13.208Z,27.45
2022-08-11T07:46:17.523Z,29.40
2022-08-11T07:49:27.179Z,32.33
2022-08-11T07:52:33.671Z,27.83
2022-08-11T07:55:22.055Z,26.30
2022-08-11T07:58:52.427Z,23.80
2022-08-11T08:01:57.762Z,24.83
2022-08-11T08:05:04.027Z,23.98
2022-08-11T08:08:08.003Z,28.08
2022-08-11T08:11:15.345Z,25.25
2022-08-11T08:14:19.573Z,24.27
2022-08-11T08:17:23.676Z,23.45
2022-08-11T08:20:13.503Z,20.48
2022-08-11T08:23:01.132Z,20.35
2022-08-11T08:25:47.735Z,23.23
2022-08-11T08:28:34.243Z,25.65
2022-08-11T08:31:19.709Z,19.83
2022-08-11T08:34:05.279Z,22.67
2022-08-11T08:36:52.259Z,19.85
2022-08-11T08:39:38.215Z,20.48
2022-08-11T08:42:29.570Z,17.02
2022-08-11T08:45:18.639Z,19.55
2022-08-11T08:48:08.989Z,19.33
2022-08-11T08:51:17.443Z,18.02
2022-08-11T08:54:21.634Z,19.10
2022-08-11T08:57:09.226Z,20.50
2022-08-11T08:59:55.395Z,19.90
2022-08-11T09:02:42.087Z,23.27
2022-08-11T09:05:27.535Z,18.52
2022-08-11T09:08:13.588Z,14.88
2022-08-11T09:11:19.860Z,17.83
2022-08-11T09:14:09.298Z,21.05
2022-08-11T09:16:57.264Z,18.63
2022-08-11T09:19:43.246Z,23.20
2022-08-11T09:23:29.621Z,18.45
2022-08-11T09:26:22.572Z,17.10
2022-08-11T09:29:16.765Z,15.98
2022-08-11T09:32:02.581Z,14.98
2022-08-11T09:34:52.113Z,15.07
2022-08-11T09:37:59.470Z,13.50
2022-08-11T09:40:56.172Z,15.25
2022-08-11T09:44:05.898Z,12.60
2022-08-11T09:46:54.090Z,13.65
2022-08-11T09:49:53.198Z,13.35
2022-08-11T09:52:57.122Z,14.95
2022-08-11T09:55:47.996Z,13.55
2022-08-11T09:58:43.148Z,13.60
2022-08-11T10:01:32.618Z,12.75
2022-08-11T10:04:48.571Z,13.25
2022-08-11T10:07:34.586Z,11.45
2022-08-11T10:10:22.757Z,11.82
2022-08-11T10:14:30.533Z,8.98
2022-08-11T10:16:28.152Z,7.40
2022-08-11T10:19:19.087Z,11.98
2022-08-11T10:22:24.755Z,9.35
2022-08-11T10:25:33.176Z,10.05
2022-08-11T10:28:33.827Z,14.18
2022-08-11T10:31:57.530Z,16.27
2022-08-11T10:34:51.165Z,7.45
2022-08-11T10:38:08.306Z,9.55
2022-08-11T10:41:11.751Z,12.05
2022-08-11T10:44:03.570Z,9.52
2022-08-11T10:47:08.749Z,8.20
2022-08-11T10:50:14.853Z,7.85
2022-08-11T10:53:19.763Z,6.68
2022-08-11T10:56:25.417Z,6.43
2022-08-11T10:59:11.042Z,6.97
2022-08-11T11:01:58.321Z,10.93
2022-08-11T11:05:01.442Z,6.22
2022-08-11T11:08:31.805Z,6.00
2022-08-11T11:11:21.147Z,6.72
2022-08-11T11:14:27.224Z,6.40
2022-08-11T11:17:14.079Z,8.43
2022-08-11T11:20:03.718Z,7.07
2022-08-11T11:22:55.040Z,4.25
2022-08-11T11:26:11.089Z,4.57
2022-08-11T11:29:28.109Z,7.45
2022-08-11T11:32:18.468Z,6.95
2022-08-11T11:35:16.309Z,6.05
2022-08-11T11:38:04.210Z,6.43
2022-08-11T11:41:11.221Z,8.43
2022-08-11T11:43:57.683Z,6.20
2022-08-11T11:46:47.626Z,5.65
2022-08-11T11:49:35.379Z,4.05
2022-08-11T11:52:22.238Z,5.22
2022-08-11T11:55:09.052Z,4.93
2022-08-11T11:58:18.647Z,9.23
2022-08-11T12:01:19.025Z,5.10
2022-08-11T12:04:06.690Z,5.38
2022-08-11T12:07:12.988Z,6.57
2022-08-11T12:10:00.027Z,6.63
2022-08-11T12:13:05.536Z,5.03
2022-08-11T12:16:31.567Z,3.38
2022-08-11T12:19:00.428Z,6.10
2022-08-11T12:22:05.194Z,4.05
2022-08-11T12:25:09.855Z,4.25
2022-08-11T12:27:56.700Z,5.32
2022-08-11T12:30:49.472Z,6.40
2022-08-11T12:33:43.902Z,5.20
2022-08-11T12:36:33.648Z,6.50
2022-08-11T12:40:15.766Z,4.68
2022-08-11T12:43:21.018Z,6.35
2022-08-11T12:46:16.610Z,5.70
2022-08-11T12:49:31.285Z,3.30
2022-08-11T12:52:23.961Z,5.93
2022-08-11T12:55:39.569Z,5.47
2022-08-11T12:58:27.228Z,7.30
2022-08-11T13:01:31.900Z,3.15
2022-08-11T13:04:35.965Z,5.05
2022-08-11T13:07:22.334Z,4.30
2022-08-11T13:10:11.324Z,6.72
2022-08-11T13:13:52.282Z,3.42
2022-08-11T13:16:15.073Z,2.40
2022-08-11T13:19:01.832Z,3.53
2022-08-11T13:21:49.392Z,5.75
2022-08-11T13:24:36.638Z,5.78
2022-08-11T13:27:22.977Z,4.25
2022-08-11T13:30:27.533Z,6.70
2022-08-11T13:33:13.932Z,3.83
2022-08-11T13:36:00.652Z,4.18
2022-08-11T13:38:50.029Z,4.57
2022-08-11T13:41:44.200Z,4.57
2022-08-11T13:44:33.549Z,5.68
2022-08-11T13:47:23.655Z,3.78
2022-08-11T13:50:12.579Z,8.70
2022-08-11T13:52:59.014Z,6.13
2022-08-11T13:55:52.292Z,6.88
2022-08-11T13:58:40.647Z,2.67
2022-08-11T14:02:20.887Z,5.18
2022-08-11T14:04:42.786Z,4.72
2022-08-11T14:07:37.863Z,6.87
2022-08-11T14:10:28.945Z,5.75
2022-08-11T14:13:52.346Z,5.47
2022-08-11T14:16:42.963Z,2.85
2022-08-11T14:19:29.383Z,4.38
2022-08-11T14:22:16.716Z,5.43
2022-08-11T14:25:02.800Z,12.02
2022-08-11T14:28:32.065Z,3.78
2022-08-11T14:30:57.623Z,4.63
2022-08-11T14:33:58.573Z,3.05
2022-08-11T14:36:47.279Z,3.33
2022-08-11T14:39:36.029Z,4.47
2022-08-11T14:42:42.377Z,5.13
2022-08-11T14:45:57.885Z,4.05
2022-08-11T14:48:45.530Z,4.88
2022-08-11T14:51:31.697Z,5.68
2022-08-11T14:54:35.999Z,3.42
2022-08-11T14:57:55.323Z,6.10
2022-08-11T15:00:30.217Z,3.72
2022-08-11T15:03:16.237Z,4.53
2022-08-11T15:06:05.060Z,11.30
2022-08-11T15:08:56.524Z,4.32
2022-08-11T15:12:32.965Z,7.15
2022-08-11T15:15:38.939Z,3.10
2022-08-11T15:18:26.021Z,4.00
2022-08-11T15:21:30.350Z,5.72
2022-08-11T15:24:30.713Z,4.63
2022-08-11T15:27:42.495Z,4.60
2022-08-11T15:30:47.393Z,6.45
2022-08-11T15:33:55.409Z,3.88
2022-08-11T15:37:03.831Z,6.00
2022-08-11T15:40:31.082Z,3.92
2022-08-11T15:43:42.142Z,2.85
2022-08-11T15:46:47.335Z,3.45
2022-08-11T15:50:11.001Z,5.28
2022-08-11T15:52:59.086Z,2.70
2022-08-11T15:55:46.880Z,3.63
2022-08-11T15:59:10.728Z,3.88
2022-08-11T16:02:12.885Z,5.68
2022-08-11T16:05:11.838Z,4.85
2022-08-11T16:07:58.506Z,4.70
2022-08-11T16:10:46.658Z,4.78
2022-08-11T16:13:37.435Z,4.65
2022-08-11T16:16:23.104Z,4.80
2022-08-11T16:19:10.858Z,6.50
2022-08-11T16:21:57.535Z,5.95
2022-08-11T16:27:01.506Z,3.03
2022-08-11T16:28:06.061Z,5.03
2022-08-11T16:30:53.419Z,7.13
2022-08-11T16:33:50.520Z,5.63
2022-08-11T16:36:55.752Z,5.03
2022-08-11T16:39:42.658Z,3.83
2022-08-11T16:46:15.493Z,2.92
2022-08-11T16:49:05.173Z,4.05
2022-08-11T16:51:50.953Z,3.47
2022-08-11T16:54:37.616Z,9.63
2022-08-11T16:57:45.236Z,3.28
2022-08-11T17:00:31.576Z,5.65
2022-08-11T17:03:38.152Z,3.28
2022-08-11T17:06:42.034Z,6.53
2022-08-11T17:09:48.622Z,3.45
2022-08-11T17:12:56.792Z,8.40
2022-08-11T17:16:07.231Z,3.65
2022-08-11T17:19:17.094Z,5.88
2022-08-11T17:22:22.288Z,4.50
2022-08-11T17:25:09.936Z,3.63
2022-08-11T17:27:56.764Z,4.00
2022-08-11T17:31:01.576Z,3.33
2022-08-11T17:34:18.456Z,5.78
2022-08-11T17:37:04.848Z,2.22
2022-08-11T17:39:51.568Z,5.95
2022-08-11T17:42:57.069Z,4.65
2022-08-11T17:46:03.440Z,6.38
2022-08-11T17:48:49.775Z,3.85
2022-08-11T17:51:55.252Z,4.43
2022-08-11T17:55:01.596Z,6.07
2022-08-11T17:58:12.095Z,2.90
2022-08-11T18:01:08.665Z,3.92
2022-08-11T18:03:58.718Z,7.57
2022-08-11T18:06:46.494Z,4.43
2022-08-11T18:09:50.463Z,4.47
2022-08-11T18:12:54.522Z,7.70
2022-08-11T18:16:01.697Z,8.73
2022-08-11T18:19:05.710Z,6.38
2022-08-11T18:22:15.349Z,7.15
2022-08-11T18:25:45.679Z,4.05
2022-08-11T18:28:56.247Z,2.30
2022-08-11T18:32:08.215Z,6.90
2022-08-11T18:35:15.359Z,3.85
2022-08-11T18:38:21.711Z,3.60
2022-08-11T18:41:28.560Z,5.55
2022-08-11T18:44:35.947Z,6.70
2022-08-11T18:47:41.780Z,7.70
2022-08-11T18:50:47.314Z,6.10
2022-08-11T18:54:09.675Z,7.30
2022-08-11T18:57:18.251Z,4.72
2022-08-11T19:00:25.332Z,5.88
2022-08-11T19:03:31.411Z,4.85
2022-08-11T19:06:50.017Z,5.05
2022-08-11T19:09:56.359Z,6.60
2022-08-11T19:13:02.014Z,5.13
2022-08-11T19:16:06.993Z,9.45
2022-08-11T19:19:13.810Z,10.98
2022-08-11T19:22:21.674Z,5.30
2022-08-11T19:25:27.274Z,5.38
2022-08-11T19:28:33.272Z,7.55
2022-08-11T19:31:44.341Z,7.32
2022-08-11T19:34:50.035Z,8.38
2022-08-11T19:37:56.490Z,6.30
2022-08-11T19:41:02.142Z,5.82
2022-08-11T19:44:07.807Z,7.10
2022-08-11T19:47:12.814Z,4.03
2022-08-11T19:50:24.274Z,3.53
2022-08-11T19:53:29.143Z,8.00
2022-08-11T19:56:34.534Z,7.13
2022-08-11T19:59:38.963Z,7.10
2022-08-11T20:02:43.117Z,6.65
2022-08-11T20:05:59.436Z,13.35
2022-08-11T20:09:06.255Z,6.43
2022-08-11T20:12:13.545Z,5.97
2022-08-11T20:15:18.751Z,6.18
2022-08-11T20:18:25.542Z,8.05
2022-08-11T20:21:33.115Z,7.25
2022-08-11T20:24:39.079Z,7.43
2022-08-11T20:27:44.043Z,5.85
2022-08-11T20:30:51.976Z,5.53
2022-08-11T20:33:57.058Z,5.85
2022-08-11T20:37:02.555Z,6.40
2022-08-11T20:40:10.215Z,6.80
2022-08-11T20:44:05.676Z,10.40
2022-08-11T20:46:42.040Z,8.05
2022-08-11T20:49:53.794Z,9.52
2022-08-11T20:53:02.795Z,8.20
2022-08-11T20:56:08.708Z,8.63
2022-08-11T20:59:18.831Z,6.72
2022-08-11T21:02:28.417Z,5.88
2022-08-11T21:06:09.299Z,8.70
2022-08-11T21:09:00.752Z,6.18
2022-08-11T21:12:06.513Z,8.93
2022-08-11T21:15:13.943Z,7.65
2022-08-11T21:18:41.327Z,6.65
2022-08-11T21:21:50.079Z,7.47
2022-08-11T21:24:58.344Z,8.35
2022-08-11T21:28:04.983Z,7.68
2022-08-11T21:31:10.713Z,7.05
2022-08-11T21:34:15.903Z,8.13
2022-08-11T21:37:21.704Z,5.95
2022-08-11T21:40:27.485Z,7.00
2022-08-11T21:43:33.780Z,8.90
2022-08-11T21:46:41.270Z,8.05
2022-08-11T21:49:46.447Z,7.13
2022-08-11T21:52:51.309Z,8.75
2022-08-11T21:55:58.262Z,10.98
2022-08-11T21:59:07.106Z,8.73
2022-08-11T22:02:13.142Z,9.55
2022-08-11T22:05:17.705Z,13.43
2022-08-11T22:08:22.127Z,8.20
2022-08-11T22:11:31.792Z,11.68
2022-08-11T22:14:36.738Z,9.43
2022-08-11T22:17:40.598Z,7.88
2022-08-11T22:20:47.013Z,6.75
2022-08-11T22:23:55.430Z,10.50
2022-08-11T22:27:00.241Z,10.32
2022-08-11T22:30:04.768Z,8.45
2022-08-11T22:33:11.329Z,7.85
2022-08-11T22:36:16.787Z,10.43
2022-08-11T22:39:22.237Z,12.30
2022-08-11T22:42:33.234Z,10.50
2022-08-11T22:45:40.255Z,13.32
2022-08-11T22:48:48.531Z,8.60
2022-08-11T22:51:53.824Z,9.80
2022-08-11T22:54:58.868Z,11.00
2022-08-11T22:58:03.938Z,10.95
2022-08-11T23:01:09.457Z,10.98
2022-08-11T23:04:15.185Z,7.03
2022-08-11T23:07:51.699Z,12.77
2022-08-11T23:10:46.221Z,10.77
2022-08-11T23:13:51.843Z,9.10
2022-08-11T23:16:57.112Z,8.40
2022-08-11T23:20:11.163Z,10.13
2022-08-11T23:23:27.656Z,14.27
2022-08-11T23:26:32.636Z,10.38
2022-08-11T23:29:37.592Z,7.05
2022-08-11T23:32:45.462Z,10.40
2022-08-11T23:35:56.438Z,10.35
2022-08-11T23:39:03.388Z,12.65
2022-08-11T23:42:07.410Z,14.20
2022-08-11T23:45:11.299Z,8.52
2022-08-11T23:48:16.918Z,12.77
2022-08-11T23:51:22.453Z,10.48
2022-08-11T23:54:28.391Z,6.93
2022-08-11T23:57:32.568Z,9.70
